This is the latest recevied weather packets stored in our database for station/object IU3OVK-13. If no packets are shown the sender has not sent any weather packets the latest 10 day(s).
| Time | Temp. | Humidity | Pressure | Rain* | Wind** | Luminosity | Snow |
|---|---|---|---|---|---|---|---|
| 1777557352 | 17.78° C | 99% | 1015.7 hPa | - | - | - | - |
| 1777556112 | 17.78° C | 99% | 1016.1 hPa | - | - | - | - |
| 1777555492 | 18.33° C | 99% | 1015.9 hPa | - | - | - | - |
| 1777554872 | 17.78° C | 99% | 1016.4 hPa | - | - | - | - |
| 1777554252 | 17.78° C | 99% | 1016.4 hPa | - | - | - | - |
| 1777553631 | 18.33° C | 99% | 1016.4 hPa | - | - | - | - |
| 1777552391 | 18.89° C | 99% | 1016.8 hPa | - | - | - | - |
| 1777551771 | 19.44° C | 99% | 1016.6 hPa | - | - | - | - |
| 1777551151 | 18.33° C | 99% | 1016.9 hPa | - | - | - | - |
| 1777550531 | 18.33° C | 99% | 1017.2 hPa | - | - | - | - |
| 1777549911 | 19.44° C | 99% | 1017.1 hPa | - | - | - | - |
| 1777549290 | 18.89° C | 99% | 1017.4 hPa | - | - | - | - |
| 1777547430 | 19.44° C | 99% | 1017.7 hPa | - | - | - | - |
| 1777546810 | 18.89° C | 99% | 1018.3 hPa | - | - | - | - |
| 1777546190 | 17.78° C | 99% | 1018.5 hPa | - | - | - | - |
| 1777545569 | 20.56° C | 96% | 1018.1 hPa | - | - | - | - |
| 1777544329 | 20.56° C | 84% | 1018.2 hPa | - | - | - | - |
| 1777543709 | 20.56° C | 85% | 1018.2 hPa | - | - | - | - |
| 1777543088 | 35° C | 62% | 1015.1 hPa | - | - | - | - |
| 1777542467 | 32.22° C | 64% | 1016 hPa | - | - | - | - |
| 1777541847 | 35° C | 60% | 1014.8 hPa | - | - | - | - |
| 1777541227 | 31.11° C | 62% | 1015.7 hPa | - | - | - | - |
| 1777539986 | 31.67° C | 63% | 1016.4 hPa | - | - | - | - |
| 1777539367 | 33.33° C | 63% | 1016.6 hPa | - | - | - | - |
| 1777535024 | 23.33° C | 88% | 1018.9 hPa | - | - | - | - |
* Rain since midnight (hover to see other rain measurements)
** Current wind speed in m/s (hover to see current wind gust speed)